createdAt,value
2023-04-18T00:00:39.130Z,10.90
2023-04-18T00:03:06.498Z,13.00
2023-04-18T00:05:33.672Z,10.80
2023-04-18T00:08:00.646Z,10.70
2023-04-18T00:10:27.704Z,10.70
2023-04-18T00:12:54.709Z,10.70
2023-04-18T00:15:21.661Z,11.60
2023-04-18T00:17:48.852Z,10.80
2023-04-18T00:20:16.185Z,10.60
2023-04-18T00:22:43.925Z,12.30
2023-04-18T00:25:11.223Z,10.50
2023-04-18T00:27:41.910Z,10.50
2023-04-18T00:30:09.668Z,10.50
2023-04-18T00:32:38.202Z,10.50
2023-04-18T00:35:06.135Z,10.40
2023-04-18T00:37:33.245Z,10.40
2023-04-18T00:40:00.127Z,10.40
2023-04-18T00:42:28.874Z,10.40
2023-04-18T00:44:55.991Z,10.40
2023-04-18T00:47:23.265Z,10.40
2023-04-18T00:49:50.630Z,10.40
2023-04-18T00:52:18.746Z,10.40
2023-04-18T00:54:47.271Z,10.40
2023-04-18T00:57:15.087Z,10.40
2023-04-18T00:59:42.956Z,10.50
2023-04-18T01:02:09.911Z,10.40
2023-04-18T01:04:37.308Z,10.30
2023-04-18T01:07:05.143Z,10.30
2023-04-18T01:09:32.174Z,10.30
2023-04-18T01:11:59.431Z,10.30
2023-04-18T01:14:26.396Z,10.90
2023-04-18T01:16:53.528Z,11.50
2023-04-18T01:19:20.803Z,10.20
2023-04-18T01:21:47.994Z,10.50
2023-04-18T01:24:17.678Z,10.10
2023-04-18T01:26:49.387Z,10.10
2023-04-18T01:29:16.582Z,10.10
2023-04-18T01:31:43.537Z,10.10
2023-04-18T01:34:10.956Z,10.10
2023-04-18T01:36:39.107Z,10.00
2023-04-18T01:39:07.161Z,10.00
2023-04-18T01:41:34.100Z,9.90
2023-04-18T01:44:01.709Z,11.00
2023-04-18T01:46:29.354Z,11.60
2023-04-18T01:48:57.523Z,9.80
2023-04-18T01:51:24.598Z,10.60
2023-04-18T01:53:53.799Z,10.40
2023-04-18T01:56:21.794Z,11.90
2023-04-18T01:58:48.881Z,12.00
2023-04-18T02:01:16.617Z,9.90
2023-04-18T02:03:43.854Z,10.10
2023-04-18T02:06:13.292Z,9.70
2023-04-18T02:08:40.709Z,9.70
2023-04-18T02:11:07.828Z,9.50
2023-04-18T02:13:35.222Z,9.50
2023-04-18T02:16:12.667Z,10.40
2023-04-18T02:18:40.158Z,9.40
2023-04-18T02:21:07.336Z,11.10
2023-04-18T02:23:34.347Z,9.30
2023-04-18T02:26:01.235Z,9.30
2023-04-18T02:28:28.183Z,9.20
2023-04-18T02:30:55.160Z,9.20
2023-04-18T02:33:22.161Z,9.20
2023-04-18T02:35:49.092Z,9.10
2023-04-18T02:38:17.467Z,10.90
2023-04-18T02:40:44.311Z,9.00
2023-04-18T02:43:11.266Z,9.00
2023-04-18T02:45:38.586Z,10.50
2023-04-18T02:48:05.819Z,8.90
2023-04-18T02:50:35.472Z,8.90
2023-04-18T02:53:02.798Z,10.80
2023-04-18T02:55:41.653Z,8.80
2023-04-18T02:58:09.293Z,8.80
2023-04-18T03:00:56.462Z,8.70
2023-04-18T03:04:00.176Z,9.10
2023-04-18T03:07:02.063Z,8.60
2023-04-18T03:09:33.279Z,10.30
2023-04-18T03:12:05.810Z,10.00
2023-04-18T03:14:34.906Z,8.50
2023-04-18T03:17:02.488Z,8.50
2023-04-18T03:19:35.636Z,8.50
2023-04-18T03:22:06.691Z,9.40
2023-04-18T03:24:36.443Z,8.40
2023-04-18T03:27:06.102Z,9.50
2023-04-18T03:29:33.608Z,8.30
2023-04-18T03:32:01.283Z,9.30
2023-04-18T03:34:29.395Z,8.30
2023-04-18T03:36:56.758Z,8.20
2023-04-18T03:39:24.815Z,8.60
2023-04-18T03:41:53.024Z,8.20
2023-04-18T03:44:20.304Z,8.20
2023-04-18T03:46:47.360Z,8.10
2023-04-18T03:49:14.466Z,9.00
2023-04-18T03:51:50.046Z,8.10
2023-04-18T03:54:18.472Z,8.10
2023-04-18T03:56:46.005Z,8.10
2023-04-18T03:59:13.951Z,10.20
2023-04-18T04:01:43.952Z,8.00
2023-04-18T04:04:13.100Z,8.00
2023-04-18T04:06:40.527Z,7.90
2023-04-18T04:09:07.799Z,9.20
2023-04-18T04:11:34.776Z,9.20
2023-04-18T04:14:02.193Z,9.20
2023-04-18T04:16:35.492Z,7.90
2023-04-18T04:19:04.594Z,7.90
2023-04-18T04:21:38.104Z,9.70
2023-04-18T04:24:08.007Z,8.90
2023-04-18T04:26:39.570Z,7.80
2023-04-18T04:29:13.805Z,7.80
2023-04-18T04:31:42.679Z,9.80
2023-04-18T04:34:09.755Z,9.70
2023-04-18T04:36:37.532Z,7.80
2023-04-18T04:39:06.660Z,7.80
2023-04-18T04:41:47.180Z,9.00
2023-04-18T04:44:17.794Z,7.80
2023-04-18T04:46:44.948Z,7.80
2023-04-18T04:49:19.131Z,9.20
2023-04-18T04:51:46.261Z,5.50
2023-04-18T04:54:13.627Z,7.70
2023-04-18T04:56:41.097Z,7.70
2023-04-18T04:59:08.080Z,7.70
2023-04-18T05:01:42.891Z,7.70
2023-04-18T05:04:10.060Z,7.80
2023-04-18T05:06:40.044Z,7.80
2023-04-18T05:09:07.437Z,9.60
2023-04-18T05:11:34.505Z,7.80
2023-04-18T05:14:01.519Z,7.70
2023-04-18T05:16:28.502Z,7.80
2023-04-18T05:18:56.599Z,7.80
2023-04-18T05:21:26.038Z,7.70
2023-04-18T05:23:53.155Z,7.70
2023-04-18T05:26:20.854Z,9.20
2023-04-18T05:28:48.162Z,7.70
2023-04-18T05:31:15.131Z,7.80
2023-04-18T05:33:42.416Z,7.80
2023-04-18T05:36:12.209Z,9.50
2023-04-18T05:38:39.180Z,9.50
2023-04-18T05:41:06.156Z,7.80
2023-04-18T05:43:33.257Z,7.90
2023-04-18T05:46:00.401Z,7.90
2023-04-18T05:48:28.197Z,7.90
2023-04-18T05:50:55.200Z,8.00
2023-04-18T05:53:22.233Z,8.00
2023-04-18T05:55:50.158Z,8.10
2023-04-18T05:58:17.257Z,9.70
2023-04-18T06:00:44.393Z,8.20
2023-04-18T06:03:11.783Z,8.20
2023-04-18T06:05:40.970Z,11.00
2023-04-18T06:08:08.240Z,8.30
2023-04-18T06:10:38.499Z,8.40
2023-04-18T06:13:06.176Z,10.70
2023-04-18T06:15:34.297Z,10.30
2023-04-18T06:18:01.289Z,8.50
2023-04-18T06:20:28.263Z,11.10
2023-04-18T06:22:55.258Z,8.50
2023-04-18T06:25:22.237Z,10.70
2023-04-18T06:27:49.303Z,10.80
2023-04-18T06:30:16.335Z,8.80
2023-04-18T06:32:43.565Z,8.80
2023-04-18T06:35:11.011Z,9.00
2023-04-18T06:37:38.188Z,9.10
2023-04-18T06:40:05.951Z,9.20
2023-04-18T06:42:32.996Z,9.30
2023-04-18T06:44:59.973Z,9.40
2023-04-18T06:47:27.117Z,9.60
2023-04-18T06:49:54.489Z,9.70
2023-04-18T06:52:21.403Z,9.70
2023-04-18T06:54:48.353Z,9.90
2023-04-18T06:57:15.882Z,11.90
2023-04-18T06:59:42.803Z,11.90
2023-04-18T07:02:09.838Z,10.40
2023-04-18T07:04:36.859Z,10.50
2023-04-18T07:07:05.205Z,11.90
2023-04-18T07:09:32.670Z,10.80
2023-04-18T07:11:59.646Z,12.80
2023-04-18T07:14:27.512Z,12.80
2023-04-18T07:16:58.956Z,11.00
2023-04-18T07:19:26.368Z,11.10
2023-04-18T07:21:54.879Z,11.20
2023-04-18T07:24:23.621Z,12.20
2023-04-18T07:26:53.784Z,11.80
2023-04-18T07:29:22.013Z,11.50
2023-04-18T07:31:49.390Z,11.50
2023-04-18T07:34:16.485Z,13.30
2023-04-18T07:36:43.637Z,11.50
2023-04-18T07:39:11.230Z,13.00
2023-04-18T07:41:38.143Z,11.50
2023-04-18T07:44:05.462Z,11.60
2023-04-18T07:46:33.941Z,11.60
2023-04-18T07:49:02.374Z,11.70
2023-04-18T07:51:32.375Z,11.90
2023-04-18T07:53:59.691Z,13.50
2023-04-18T07:56:28.344Z,13.40
2023-04-18T07:58:55.665Z,12.20
2023-04-18T08:01:24.682Z,12.40
2023-04-18T08:03:53.612Z,12.50
2023-04-18T08:06:21.453Z,12.70
2023-04-18T08:08:48.529Z,13.40
2023-04-18T08:11:15.426Z,13.10
2023-04-18T08:13:42.448Z,15.10
2023-04-18T08:16:09.542Z,13.50
2023-04-18T08:18:36.662Z,14.20
2023-04-18T08:21:03.998Z,13.90
2023-04-18T08:23:30.963Z,13.90
2023-04-18T08:25:58.091Z,15.80
2023-04-18T08:28:25.238Z,14.00
2023-04-18T08:30:52.187Z,14.20
2023-04-18T08:33:19.168Z,15.70
2023-04-18T08:35:46.162Z,14.00
2023-04-18T08:38:13.437Z,14.00
2023-04-18T08:40:40.434Z,14.00
2023-04-18T08:43:09.411Z,14.10
2023-04-18T08:45:36.990Z,16.10
2023-04-18T08:48:04.357Z,14.10
2023-04-18T08:50:31.978Z,14.10
2023-04-18T08:53:03.693Z,14.20
2023-04-18T08:55:30.780Z,14.90
2023-04-18T08:57:57.738Z,14.30
2023-04-18T09:00:24.819Z,14.30
2023-04-18T09:02:56.816Z,16.10
2023-04-18T09:05:27.856Z,14.60
2023-04-18T09:07:56.881Z,14.70
2023-04-18T09:10:35.035Z,14.90
2023-04-18T09:13:04.288Z,15.00
2023-04-18T09:15:31.915Z,15.10
2023-04-18T09:18:03.271Z,15.70
2023-04-18T09:20:44.489Z,15.30
2023-04-18T09:23:23.417Z,16.30
2023-04-18T09:25:52.448Z,16.90
2023-04-18T09:28:33.435Z,15.90
2023-04-18T09:31:12.895Z,16.20
2023-04-18T09:33:52.721Z,15.80
2023-04-18T09:36:29.209Z,15.80
2023-04-18T09:38:57.160Z,15.90
2023-04-18T09:41:24.806Z,16.10
2023-04-18T09:44:15.735Z,16.30
2023-04-18T09:46:46.610Z,16.60
2023-04-18T09:49:14.874Z,16.80
2023-04-18T09:51:44.372Z,17.40
2023-04-18T09:54:15.874Z,17.00
2023-04-18T09:56:45.921Z,17.20
2023-04-18T09:59:18.678Z,17.50
2023-04-18T10:01:50.874Z,17.30
2023-04-18T10:04:19.421Z,16.90
2023-04-18T10:06:46.867Z,16.80
2023-04-18T10:09:16.052Z,16.80
2023-04-18T10:11:44.432Z,16.60
2023-04-18T10:14:15.540Z,16.50
2023-04-18T10:16:45.494Z,16.40
2023-04-18T10:19:27.237Z,16.20
2023-04-18T10:22:01.831Z,17.50
2023-04-18T10:24:50.163Z,16.00
2023-04-18T10:27:18.918Z,15.90
2023-04-18T10:29:53.942Z,16.50
2023-04-18T10:32:23.789Z,15.80
2023-04-18T10:34:53.471Z,15.70
2023-04-18T10:37:21.309Z,15.70
2023-04-18T10:39:58.362Z,16.60
2023-04-18T10:42:47.042Z,15.60
2023-04-18T10:45:25.746Z,15.70
2023-04-18T10:48:32.732Z,15.70
2023-04-18T10:51:21.024Z,15.80
2023-04-18T10:53:57.803Z,16.60
2023-04-18T10:56:26.126Z,16.10
2023-04-18T10:58:53.853Z,16.30
2023-04-18T11:01:31.030Z,16.40
2023-04-18T11:04:00.340Z,17.40
2023-04-18T11:06:27.685Z,16.80
2023-04-18T11:09:12.098Z,16.60
2023-04-18T11:11:39.482Z,16.60
2023-04-18T11:14:07.742Z,16.60
2023-04-18T11:16:36.496Z,16.50
2023-04-18T11:19:25.715Z,16.50
2023-04-18T11:21:52.803Z,16.50
2023-04-18T11:24:25.497Z,16.40
2023-04-18T11:26:55.943Z,16.30
2023-04-18T11:29:23.290Z,16.30
2023-04-18T11:31:53.329Z,16.30
2023-04-18T11:34:22.234Z,17.20
2023-04-18T11:36:52.943Z,16.30
2023-04-18T11:39:20.365Z,17.00
2023-04-18T11:41:50.718Z,16.30
2023-04-18T11:44:27.954Z,16.30
2023-04-18T11:46:55.130Z,16.40
2023-04-18T11:49:31.294Z,16.40
2023-04-18T11:52:01.053Z,16.60
2023-04-18T11:54:40.120Z,16.80
2023-04-18T11:57:26.585Z,16.70
2023-04-18T11:59:59.898Z,17.60
2023-04-18T12:02:45.938Z,18.00
2023-04-18T12:05:25.685Z,16.80
2023-04-18T12:07:53.246Z,16.80
2023-04-18T12:10:20.080Z,16.90
2023-04-18T12:12:56.056Z,15.90
2023-04-18T12:15:28.253Z,17.20
2023-04-18T12:18:05.031Z,17.80
2023-04-18T12:20:50.679Z,17.50
2023-04-18T12:23:35.516Z,17.70
2023-04-18T12:26:08.735Z,17.90
2023-04-18T12:28:35.830Z,18.00
2023-04-18T12:31:05.947Z,18.10
2023-04-18T12:33:34.343Z,18.20
2023-04-18T12:36:01.445Z,18.80
2023-04-18T12:38:28.462Z,18.00
2023-04-18T12:40:55.498Z,18.00
2023-04-18T12:43:22.523Z,18.00
2023-04-18T12:45:50.430Z,18.00
2023-04-18T12:48:17.388Z,18.10
2023-04-18T12:50:44.395Z,18.30
2023-04-18T12:53:11.406Z,18.40
2023-04-18T12:55:38.436Z,18.90
2023-04-18T12:58:05.450Z,18.50
2023-04-18T13:00:33.171Z,18.60
2023-04-18T13:03:00.914Z,18.70
2023-04-18T13:05:33.068Z,18.90
2023-04-18T13:10:32.269Z,19.30
2023-04-18T13:12:59.171Z,19.40
2023-04-18T13:15:27.562Z,19.30
2023-04-18T13:17:58.479Z,19.60
2023-04-18T13:20:25.684Z,18.90
2023-04-18T13:22:52.607Z,18.70
2023-04-18T13:25:19.639Z,18.70
2023-04-18T13:27:46.993Z,18.30
2023-04-18T13:30:14.100Z,18.40
2023-04-18T13:32:42.663Z,18.20
2023-04-18T13:35:13.597Z,18.20
2023-04-18T13:37:40.815Z,18.50
2023-04-18T13:40:08.602Z,18.60
2023-04-18T13:42:39.395Z,18.60
2023-04-18T13:45:07.883Z,18.70
2023-04-18T13:47:35.815Z,18.70
2023-04-18T13:50:03.029Z,18.60
2023-04-18T13:52:29.903Z,18.50
2023-04-18T13:54:56.971Z,18.40
2023-04-18T13:57:23.930Z,18.20
2023-04-18T13:59:50.922Z,18.10
2023-04-18T14:02:18.153Z,18.00
2023-04-18T14:04:45.227Z,17.90
2023-04-18T14:07:12.416Z,17.80
2023-04-18T14:09:39.752Z,17.80
2023-04-18T14:12:07.160Z,17.90
2023-04-18T14:14:34.153Z,17.60
2023-04-18T14:17:01.231Z,17.50
2023-04-18T14:19:28.447Z,17.50
2023-04-18T14:21:55.433Z,17.40
2023-04-18T14:24:22.608Z,17.60
2023-04-18T14:26:49.519Z,17.40
2023-04-18T14:29:16.975Z,17.50
2023-04-18T14:31:44.110Z,17.50
2023-04-18T14:34:11.114Z,17.40
2023-04-18T14:36:38.125Z,17.30
2023-04-18T14:39:05.539Z,17.40
2023-04-18T14:41:33.026Z,17.50
2023-04-18T14:44:00.154Z,19.60
2023-04-18T14:46:28.278Z,17.80
2023-04-18T14:48:55.367Z,17.90
2023-04-18T14:51:23.425Z,18.40
2023-04-18T14:53:50.391Z,18.50
2023-04-18T14:56:20.993Z,18.20
2023-04-18T14:58:48.400Z,18.70
2023-04-18T15:01:17.509Z,18.20
2023-04-18T15:03:45.447Z,18.10
2023-04-18T15:06:14.786Z,18.00
2023-04-18T15:08:44.090Z,18.00
2023-04-18T15:11:11.280Z,17.90
2023-04-18T15:13:38.240Z,18.10
2023-04-18T15:16:06.491Z,18.20
2023-04-18T15:18:33.404Z,18.40
2023-04-18T15:21:00.572Z,18.80
2023-04-18T15:23:28.263Z,19.00
2023-04-18T15:25:55.291Z,20.70
2023-04-18T15:28:22.723Z,20.90
2023-04-18T15:30:50.121Z,19.90
2023-04-18T15:33:19.077Z,20.20
2023-04-18T15:35:47.633Z,20.80
2023-04-18T15:38:14.908Z,20.70
2023-04-18T15:40:43.384Z,20.80
2023-04-18T15:43:10.444Z,21.00
2023-04-18T15:45:37.550Z,20.90
2023-04-18T15:48:04.952Z,20.90
2023-04-18T15:50:33.562Z,20.90
2023-04-18T15:53:02.563Z,21.00
2023-04-18T15:55:30.004Z,21.20
2023-04-18T15:57:59.990Z,21.40
2023-04-18T16:00:27.107Z,21.50
2023-04-18T16:02:54.069Z,21.60
2023-04-18T16:05:21.418Z,22.40
2023-04-18T16:07:48.331Z,21.60
2023-04-18T16:10:15.477Z,21.70
2023-04-18T16:12:42.520Z,21.60
2023-04-18T16:15:11.199Z,21.50
2023-04-18T16:17:38.432Z,21.20
2023-04-18T16:20:09.064Z,21.40
2023-04-18T16:22:37.464Z,20.90
2023-04-18T16:25:06.811Z,20.80
2023-04-18T16:27:33.986Z,20.70
2023-04-18T16:30:01.230Z,20.70
2023-04-18T16:32:28.280Z,20.50
2023-04-18T16:34:55.332Z,20.30
2023-04-18T16:37:22.279Z,20.20
2023-04-18T16:39:49.188Z,20.10
2023-04-18T16:42:16.581Z,20.00
2023-04-18T16:44:45.345Z,20.00
2023-04-18T16:47:12.797Z,20.00
2023-04-18T16:49:41.121Z,20.00
2023-04-18T16:52:08.463Z,20.10
2023-04-18T16:54:35.818Z,20.10
2023-04-18T16:57:03.394Z,18.10
2023-04-18T16:59:30.588Z,20.30
2023-04-18T17:01:57.811Z,20.40
2023-04-18T17:04:26.912Z,20.80
2023-04-18T17:06:54.123Z,20.60
2023-04-18T17:09:21.293Z,20.60
2023-04-18T17:11:48.670Z,20.60
2023-04-18T17:14:17.462Z,20.50
2023-04-18T17:16:44.587Z,20.30
2023-04-18T17:19:11.810Z,20.00
2023-04-18T17:21:39.293Z,19.80
2023-04-18T17:24:07.082Z,19.60
2023-04-18T17:26:37.033Z,19.30
2023-04-18T17:29:04.635Z,19.00
2023-04-18T17:31:32.591Z,18.80
2023-04-18T17:34:00.798Z,18.50
2023-04-18T17:36:27.846Z,18.40
2023-04-18T17:38:55.122Z,18.10
2023-04-18T17:41:22.424Z,18.00
2023-04-18T17:43:53.605Z,17.70
2023-04-18T17:46:20.719Z,19.20
2023-04-18T17:48:47.638Z,19.60
2023-04-18T17:51:16.377Z,18.70
2023-04-18T17:53:43.377Z,17.20
2023-04-18T17:56:10.398Z,17.10
2023-04-18T17:58:37.380Z,17.10
2023-04-18T18:01:13.364Z,17.00
2023-04-18T18:03:40.773Z,17.00
2023-04-18T18:06:11.239Z,17.00
2023-04-18T18:08:39.003Z,16.90
2023-04-18T18:11:06.231Z,16.90
2023-04-18T18:13:33.260Z,16.80
2023-04-18T18:16:01.911Z,16.70
2023-04-18T18:18:30.096Z,18.40
2023-04-18T18:20:58.119Z,16.70
2023-04-18T18:23:25.621Z,17.00
2023-04-18T18:25:52.606Z,17.80
2023-04-18T18:28:19.590Z,16.40
2023-04-18T18:30:46.501Z,17.50
2023-04-18T18:33:13.835Z,16.10
2023-04-18T18:35:40.745Z,15.90
2023-04-18T18:38:07.765Z,16.40
2023-04-18T18:40:34.690Z,15.60
2023-04-18T18:43:02.684Z,17.00
2023-04-18T18:45:29.751Z,15.30
2023-04-18T18:47:56.957Z,15.10
2023-04-18T18:50:23.979Z,15.90
2023-04-18T18:52:50.943Z,15.10
2023-04-18T18:55:18.597Z,14.80
2023-04-18T18:57:45.598Z,14.60
2023-04-18T19:00:13.388Z,15.70
2023-04-18T19:02:40.396Z,14.40
2023-04-18T19:05:08.743Z,14.30
2023-04-18T19:07:35.671Z,14.30
2023-04-18T19:10:03.432Z,14.30
2023-04-18T19:12:30.336Z,14.10
2023-04-18T19:14:57.323Z,14.00
2023-04-18T19:17:24.823Z,13.90
2023-04-18T19:19:53.516Z,13.90
2023-04-18T19:22:20.543Z,13.80
2023-04-18T19:24:47.577Z,13.80
2023-04-18T19:27:14.574Z,15.20
2023-04-18T19:29:41.585Z,13.60
2023-04-18T19:32:08.680Z,13.60
2023-04-18T19:34:36.112Z,14.60
2023-04-18T19:37:03.790Z,13.50
2023-04-18T19:39:31.046Z,13.50
2023-04-18T19:41:57.953Z,14.20
2023-04-18T19:44:25.142Z,13.40
2023-04-18T19:46:52.017Z,13.30
2023-04-18T19:49:19.190Z,13.40
2023-04-18T19:51:46.102Z,13.30
2023-04-18T19:54:13.358Z,13.20
2023-04-18T19:56:40.408Z,14.20
2023-04-18T19:59:08.555Z,13.20
2023-04-18T20:01:35.941Z,13.10
2023-04-18T20:04:03.272Z,13.10
2023-04-18T20:06:31.108Z,15.30
2023-04-18T20:08:58.168Z,13.30
2023-04-18T20:11:25.239Z,13.70
2023-04-18T20:13:55.398Z,13.00
2023-04-18T20:16:23.647Z,13.00
2023-04-18T20:18:54.206Z,15.20
2023-04-18T20:21:21.943Z,12.90
2023-04-18T20:23:50.513Z,12.90
2023-04-18T20:26:17.811Z,15.30
2023-04-18T20:28:44.746Z,14.90
2023-04-18T20:31:12.735Z,12.90
2023-04-18T20:33:39.831Z,14.00
2023-04-18T20:36:07.512Z,13.20
2023-04-18T20:38:34.613Z,12.80
2023-04-18T20:41:02.088Z,12.80
2023-04-18T20:43:29.269Z,12.70
2023-04-18T20:45:57.925Z,13.10
2023-04-18T20:48:25.075Z,12.70
2023-04-18T20:50:52.113Z,12.90
2023-04-18T20:53:21.123Z,13.00
2023-04-18T20:55:48.884Z,14.90
2023-04-18T20:58:16.107Z,12.50
2023-04-18T21:00:44.542Z,12.90
2023-04-18T21:03:15.708Z,12.50
2023-04-18T21:05:44.563Z,12.50
2023-04-18T21:08:11.576Z,13.00
2023-04-18T21:10:39.918Z,12.90
2023-04-18T21:13:07.142Z,12.40
2023-04-18T21:15:35.847Z,12.40
2023-04-18T21:18:03.012Z,14.30
2023-04-18T21:20:30.925Z,14.00
2023-04-18T21:22:57.864Z,12.40
2023-04-18T21:25:24.842Z,13.50
2023-04-18T21:27:54.707Z,13.90
2023-04-18T21:30:35.923Z,12.20
2023-04-18T21:33:03.416Z,11.70
2023-04-18T21:35:30.470Z,13.50
2023-04-18T21:37:58.383Z,12.60
2023-04-18T21:40:26.740Z,12.10
2023-04-18T21:42:53.700Z,12.10
2023-04-18T21:45:20.902Z,12.10
2023-04-18T21:47:48.655Z,11.90
2023-04-18T21:50:16.091Z,13.70
2023-04-18T21:52:43.247Z,12.10
2023-04-18T21:55:10.955Z,12.20
2023-04-18T21:57:37.863Z,12.20
2023-04-18T22:00:08.401Z,12.00
2023-04-18T22:02:37.119Z,12.00
2023-04-18T22:05:04.529Z,12.00
2023-04-18T22:07:32.313Z,12.00
2023-04-18T22:10:00.376Z,14.10
2023-04-18T22:12:27.526Z,12.90
2023-04-18T22:14:54.740Z,11.90
2023-04-18T22:17:21.894Z,11.90
2023-04-18T22:19:50.433Z,11.80
2023-04-18T22:22:17.428Z,11.90
2023-04-18T22:24:46.797Z,11.80
2023-04-18T22:27:14.597Z,11.80
2023-04-18T22:29:41.475Z,11.70
2023-04-18T22:32:08.529Z,13.20
2023-04-18T22:34:35.608Z,12.60
2023-04-18T22:37:02.498Z,11.60
2023-04-18T22:39:31.123Z,11.50
2023-04-18T22:41:58.029Z,11.60
2023-04-18T22:44:25.350Z,11.50
2023-04-18T22:46:54.576Z,11.40
2023-04-18T22:49:22.197Z,11.40
2023-04-18T22:51:49.695Z,11.40
2023-04-18T22:54:16.715Z,11.40
2023-04-18T22:56:43.777Z,11.70
2023-04-18T22:59:10.668Z,11.30
2023-04-18T23:01:37.735Z,11.30
2023-04-18T23:04:05.081Z,11.30
2023-04-18T23:06:32.499Z,11.30
2023-04-18T23:08:59.465Z,11.20
2023-04-18T23:11:26.827Z,11.20
2023-04-18T23:13:53.739Z,11.30
2023-04-18T23:16:21.020Z,11.20
2023-04-18T23:18:48.328Z,11.20
2023-04-18T23:21:15.602Z,11.10
2023-04-18T23:23:42.607Z,11.10
2023-04-18T23:26:17.104Z,13.40
2023-04-18T23:28:44.102Z,11.10
2023-04-18T23:31:11.197Z,11.10
2023-04-18T23:33:38.207Z,11.10
2023-04-18T23:36:06.519Z,12.50
2023-04-18T23:38:34.127Z,11.10
2023-04-18T23:41:01.079Z,11.10
2023-04-18T23:43:27.985Z,11.10
2023-04-18T23:45:54.918Z,11.10
2023-04-18T23:48:22.072Z,12.70
2023-04-18T23:50:52.109Z,11.30
2023-04-18T23:53:21.533Z,11.30
2023-04-18T23:55:51.085Z,11.50
2023-04-18T23:58:18.221Z,12.70
